Latest Coastal Weather Observations for Gannett Cay

IDQ60701

Issued at 5:25 pm EST Wednesday 30 July 2014 (issued every 10 minutes, with the page automatically refreshed every 10 minutes)

About coastal observations | Map of coastal stations | Coastal observations for QLD | Marine services | Other Formats
Station Details ID: 200831 Name: GANNET CAY Lat: -21.98 Lon: 152.47 Height: 2.3 m
Data from the previous 72 hours. | See also: Recent months for locations in Queensland
Date/Time
EST
Temp

°C
Wind Pressure Rain
since 9am
mm
Weather Cloud Vis
km
Sea
Height
m
Swell
Dir
 
Speed
knots
Gust
knots
hPa Trend Height
m
Period
s
Dir
30/05:00pm 20.0 S 16 18 1019.5 - - - - - - - - -
30/04:30pm 20.5 S 18 20 1019.4 - - - - - - - - -
30/04:26pm 20.4 S 18 - 1019.5 - - - - - - - - -
30/04:00pm 19.9 S 18 20 1019.1 - - - - - - - - -
30/03:30pm 19.9 S 17 19 1019.2 - - - - - - - - -
30/03:26pm 19.8 S 17 - 1019.2 - - - - - - - - -
30/03:00pm 19.6 S 18 20 1019.0 - - - - - - - - -
30/02:30pm 20.2 S 18 20 1019.1 - - - - - - - - -
30/02:26pm 20.0 S 18 - 1019.2 - - - - - - - - -
30/02:00pm 20.3 S 17 19 1019.4 - - - - - - - - -
30/01:30pm 20.5 S 17 20 1019.8 - - - - - - - - -
30/01:26pm 20.4 SSE 16 - 1019.9 - - - - - - - - -
30/01:00pm 21.0 SSE 17 19 1020.1 - - - - - - - - -
30/12:30pm 21.1 SE 16 18 1020.7 - - - - - - - - -
30/12:26pm 20.7 SE 17 - 1020.8 - - - - - - - - -
30/12:00pm 20.7 SE 18 20 1021.0 - - - - - - - - -
30/11:30am 20.6 SE 18 21 1021.5 - - - - - - - - -
30/11:26am 20.6 ESE 19 - 1021.7 - - - - - - - - -
30/11:00am 21.1 SE 17 20 1022.0 - - - - - - - - -
30/10:30am 21.1 SE 16 19 1022.4 - - - - - - - - -
30/10:26am 21.4 SE 14 - 1022.6 - - - - - - - - -
30/10:00am 21.4 SE 14 16 1022.7 - - - - - - - - -
30/09:30am 21.0 SE 15 17 1022.7 - - - - - - - - -
30/09:26am 21.1 SE 15 - 1022.7 - - - - - - - - -
30/09:00am 21.1 SSE 14 16 1022.5 - - - - - - - - -
30/08:30am 21.1 SE 14 16 1022.5 - - - - - - - - -
30/08:26am 21.2 SE 14 - 1022.5 - - - - - - - - -
30/08:00am 21.5 SE 12 14 1022.2 - - - - - - - - -
30/07:30am 21.4 SSE 12 13 1021.9 - - - - - - - - -
30/07:26am 21.4 SE 11 - 1022.0 - - - - - - - - -
30/07:00am 21.5 SE 9 10 1021.5 - - - - - - - - -
30/06:30am 21.6 SE 10 11 1021.1 - - - - - - - - -
30/06:26am 21.7 SE 10 - 1021.2 - - - - - - - - -
30/06:00am 21.7 SE 9 10 1020.7 - - - - - - - - -
30/05:30am 21.6 SE 10 11 1020.4 - - - - - - - - -
30/05:26am 21.6 SE 10 - 1020.5 - - - - - - - - -
30/05:00am 21.5 SE 12 13 1020.2 - - - - - - - - -
30/04:30am 21.5 ESE 9 11 1020.3 - - - - - - - - -
30/04:26am 21.7 ESE 9 - 1020.4 - - - - - - - - -
30/04:00am 21.4 E 11 13 1020.0 - - - - - - - - -
30/03:30am 22.2 ENE 8 9 1020.0 - - - - - - - - -
30/03:26am 22.1 ENE 9 - 1020.0 - - - - - - - - -
30/02:30am 22.1 E 4 5 1019.9 - - - - - - - - -
30/02:26am 22.1 E 2 - 1020.0 - - - - - - - - -
30/02:00am 21.9 E 6 7 1020.1 - - - - - - - - -
30/01:30am 21.7 SSE 7 8 1020.5 - - - - - - - - -
30/01:26am 21.7 SSE 7 - 1020.6 - - - - - - - - -
30/01:00am 21.6 SE 7 9 1020.8 - - - - - - - - -
30/12:30am 21.7 SE 8 9 1021.1 - - - - - - - - -
30/12:26am 21.7 SE 8 - 1021.2 - - - - - - - - -
30/12:00am 22.1 E 8 9 1021.2 - - - - - - - - -
 
Date/Time
EST
Temp

°C
Wind Pressure Rain
since 9am
mm
Weather Cloud Vis
km
Sea
Height
m
Swell
Dir
 
Speed
knots
Gust
knots
hPa Trend Height
m
Period
s
Dir
29/11:30pm 22.2 E 9 12 1021.2 - - - - - - - - -
29/11:26pm 22.2 E 10 - 1021.3 - - - - - - - - -
29/11:00pm 22.1 E 8 11 1021.2 - - - - - - - - -
29/10:30pm 22.0 ESE 9 11 1021.2 - - - - - - - - -
29/10:26pm 21.9 ESE 10 - 1021.3 - - - - - - - - -
29/10:00pm 21.9 ESE 6 8 1021.1 - - - - - - - - -
29/09:30pm 21.7 ESE 4 6 1021.3 - - - - - - - - -
29/09:26pm 21.8 E 5 - 1021.4 - - - - - - - - -
29/09:00pm 21.7 E 6 7 1021.3 - - - - - - - - -
29/08:30pm 21.5 SE 6 8 1021.2 - - - - - - - - -
29/08:26pm 21.5 ESE 6 - 1021.3 - - - - - - - - -
29/08:00pm 21.5 ESE 8 12 1021.1 - - - - - - - - -
29/07:30pm 21.3 ESE 7 8 1020.9 - - - - - - - - -
29/07:26pm 21.3 E 7 - 1021.0 - - - - - - - - -
29/07:00pm 21.3 ESE 8 9 1020.8 - - - - - - - - -
29/06:30pm 21.5 E 10 12 1020.5 - - - - - - - - -
29/06:26pm 21.5 E 10 - 1020.6 - - - - - - - - -
29/06:00pm 21.4 E 10 13 1020.4 - - - - - - - - -
29/05:30pm 21.5 ESE 11 13 1020.2 - - - - - - - - -
29/05:26pm 21.6 ESE 11 - 1020.2 - - - - - - - - -
29/05:00pm 21.9 ESE 10 12 1020.0 - - - - - - - - -
29/04:30pm 22.0 ESE 8 12 1019.8 - - - - - - - - -
29/04:26pm 22.2 ESE 9 - 1019.9 - - - - - - - - -
29/04:00pm 22.4 ESE 9 11 1019.6 - - - - - - - - -
29/03:30pm 22.4 ESE 10 13 1019.6 - - - - - - - - -
29/03:26pm 22.3 ESE 10 - 1019.7 - - - - - - - - -
29/03:00pm 22.1 ESE 10 12 1019.6 - - - - - - - - -
29/02:30pm 21.8 SE 12 13 1019.8 - - - - - - - - -
29/02:26pm 21.7 SSE 12 - 1019.9 - - - - - - - - -
29/02:00pm 21.9 SSE 10 12 1019.9 - - - - - - - - -
29/01:30pm 22.1 SE 9 11 1020.3 - - - - - - - - -
29/01:26pm 22.1 SE 9 - 1020.4 - - - - - - - - -
29/01:00pm 22.0 SE 9 12 1020.6 - - - - - - - - -
29/12:30pm 22.0 SE 8 10 1020.8 - - - - - - - - -
29/12:26pm 22.0 SE 9 - 1020.9 - - - - - - - - -
29/12:00pm 22.0 SE 9 11 1021.3 - - - - - - - - -
29/11:30am 21.9 SSE 10 11 1021.7 - - - - - - - - -
29/11:26am 21.8 SSE 10 - 1021.9 - - - - - - - - -
29/11:00am 21.8 SSE 11 13 1022.1 - - - - - - - - -
29/10:30am 21.8 SE 11 14 1022.4 - - - - - - - - -
29/10:26am 21.9 SE 11 - 1022.5 - - - - - - - - -
29/10:00am 21.8 SE 10 12 1022.6 - - - - - - - - -
29/09:30am 21.7 ESE 8 10 1022.8 - - - - - - - - -
29/09:26am 21.7 ESE 9 - 1022.9 - - - - - - - - -
29/09:00am 21.8 SSE 6 8 1022.8 - - - - - - - - -
29/08:30am 21.6 SSE 7 8 1022.8 - - - - - - - - -
29/08:26am 21.6 SSE 7 - 1022.8 - - - - - - - - -
29/08:00am 21.4 S 6 8 1022.6 - - - - - - - - -
29/07:30am 21.3 S 7 8 1022.3 - - - - - - - - -
29/07:26am 21.2 S 7 - 1022.4 - - - - - - - - -
29/07:00am 21.0 SSW 9 10 1021.9 - - - - - - - - -
29/06:30am 21.0 S 9 11 1021.6 - - - - - - - - -
29/06:26am 21.0 S 8 - 1021.7 - - - - - - - - -
29/06:00am 20.9 S 8 9 1021.3 - - - - - - - - -
29/05:30am 20.8 SSW 6 8 1021.1 - - - - - - - - -
29/05:26am 20.8 SSW 6 - 1021.1 - - - - - - - - -
29/05:00am 20.7 S 7 8 1020.9 - - - - - - - - -
29/04:30am 20.7 S 8 9 1020.6 - - - - - - - - -
29/04:26am 20.7 S 8 - 1020.6 - - - - - - - - -
29/04:00am 20.6 S 6 7 1020.3 - - - - - - - - -
29/03:30am 20.5 S 5 6 1020.3 - - - - - - - - -
29/03:26am 20.5 S 6 - 1020.4 - - - - - - - - -
29/02:30am 20.4 S 8 9 1020.3 - - - - - - - - -
29/02:26am 20.5 S 7 - 1020.4 - - - - - - - - -
29/02:00am 20.3 SSE 6 8 1020.3 - - - - - - - - -
29/01:30am 20.3 S 6 7 1020.5 - - - - - - - - -
29/01:26am 20.4 SSE 5 - 1020.7 - - - - - - - - -
29/01:00am 20.2 SSE 5 7 1020.8 - - - - - - - - -
29/12:30am 20.3 SE 6 7 1021.2 - - - - - - - - -
29/12:26am 20.3 ESE 5 - 1021.3 - - - - - - - - -
29/12:00am 20.4 E 7 9 1021.3 - - - - - - - - -
 
Date/Time
EST
Temp

°C
Wind Pressure Rain
since 9am
mm
Weather Cloud Vis
km
Sea
Height
m
Swell
Dir
 
Speed
knots
Gust
knots
hPa Trend Height
m
Period
s
Dir
28/11:30pm 20.4 E 5 7 1021.3 - - - - - - - - -
28/11:26pm 20.5 E 6 - 1021.4 - - - - - - - - -
28/11:00pm 20.5 ESE 7 10 1021.5 - - - - - - - - -
28/10:30pm 20.6 ESE 10 13 1021.4 - - - - - - - - -
28/10:26pm 20.6 E 9 - 1021.5 - - - - - - - - -
28/10:00pm 20.8 E 8 11 1021.3 - - - - - - - - -
28/09:30pm 20.7 E 9 13 1021.5 - - - - - - - - -
28/09:26pm 20.8 E 7 - 1021.6 - - - - - - - - -
28/09:00pm 20.9 E 9 11 1021.5 - - - - - - - - -
28/08:30pm 20.9 ESE 12 14 1021.4 - - - - - - - - -
28/08:26pm 20.9 ESE 12 - 1021.5 - - - - - - - - -
28/08:00pm 21.1 ESE 10 13 1021.3 - - - - - - - - -
28/07:30pm 21.1 ESE 11 13 1021.1 - - - - - - - - -
28/07:26pm 21.2 ESE 11 - 1021.2 - - - - - - - - -
28/07:00pm 21.2 E 10 11 1020.9 - - - - - - - - -
28/06:30pm 21.2 ESE 11 13 1020.6 - - - - - - - - -
28/06:26pm 21.3 ESE 11 - 1020.6 - - - - - - - - -
28/06:00pm 21.2 ESE 12 14 1020.3 - - - - - - - - -
28/05:30pm 21.3 ESE 13 14 1020.1 - - - - - - - - -
28/05:26pm 21.4 ESE 12 - 1020.2 - - - - - - - - -
28/05:00pm 21.6 ESE 13 15 1019.8 - - - - - - - - -
28/04:30pm 21.8 ESE 14 16 1019.7 - - - - - - - - -
28/04:26pm 21.8 ESE 13 - 1019.8 - - - - - - - - -
28/04:00pm 21.9 ESE 14 16 1019.6 - - - - - - - - -
28/03:30pm 22.0 ESE 15 17 1019.5 - - - - - - - - -
28/03:26pm 22.0 ESE 14 - 1019.6 - - - - - - - - -
28/03:00pm 22.1 SE 15 17 1019.3 - - - - - - - - -
28/02:30pm 22.0 ESE 15 17 1019.5 - - - - - - - - -
28/02:26pm 22.0 ESE 15 - 1019.7 - - - - - - - - -
28/02:00pm 22.0 SE 15 18 1019.7 - - - - - - - - -
28/01:30pm 22.1 SE 15 17 1020.0 - - - - - - - - -
28/01:26pm 22.2 SE 15 - 1020.1 - - - - - - - - -
28/01:00pm 21.9 SE 16 19 1020.3 - - - - - - - - -
28/12:30pm 22.1 SE 17 19 1020.7 - - - - - - - - -
28/12:26pm 22.1 SE 16 - 1020.8 - - - - - - - - -
28/12:00pm 22.1 SE 16 19 1021.2 - - - - - - - - -
28/11:30am 22.1 SE 15 18 1021.7 - - - - - - - - -
28/11:26am 22.1 SE 16 - 1021.8 - - - - - - - - -
28/11:00am 21.9 SE 16 19 1022.0 - - - - - - - - -
28/10:30am 21.9 ESE 16 19 1022.5 - - - - - - - - -
28/10:26am 21.9 ESE 15 - 1022.6 - - - - - - - - -
28/10:00am 21.9 SE 15 18 1022.7 - - - - - - - - -
28/09:30am 21.8 SE 16 19 1022.7 - - - - - - - - -
28/09:26am 21.7 SE 16 - 1022.9 - - - - - - - - -
28/09:00am 21.8 SE 15 18 1022.7 - - - - - - - - -
28/08:30am 21.9 SE 16 19 1022.3 - - - - - - - - -
28/08:26am 21.8 SE 16 - 1022.4 - - - - - - - - -
28/08:00am 21.8 SE 18 21 1021.9 - - - - - - - - -
28/07:30am 21.8 SE 16 19 1021.8 - - - - - - - - -
28/07:26am 21.9 SE 15 - 1021.8 - - - - - - - - -
28/07:00am 21.8 SE 16 19 1021.4 - - - - - - - - -
28/06:30am 21.6 SE 14 16 1021.1 - - - - - - - - -
28/06:26am 21.5 SE 14 - 1021.2 - - - - - - - - -
28/06:00am 21.6 SE 14 16 1020.8 - - - - - - - - -
28/05:30am 21.6 SE 15 18 1020.5 - - - - - - - - -
28/05:26am 21.7 SE 15 - 1020.6 - - - - - - - - -
28/05:00am 21.8 SE 14 17 1020.4 - - - - - - - - -
28/04:30am 21.7 SE 13 17 1020.3 - - - - - - - - -
28/04:26am 21.7 SE 14 - 1020.4 - - - - - - - - -
28/04:00am 21.8 SE 14 19 1020.2 - - - - - - - - -
28/03:30am 21.9 SE 13 18 1020.3 - - - - - - - - -
28/03:26am 21.9 SE 14 - 1020.4 - - - - - - - - -
28/02:30am 21.9 ESE 11 14 1020.4 - - - - - - - - -
28/02:26am 21.9 E 11 - 1020.6 - - - - - - - - -
28/02:00am 21.6 E 12 13 1020.7 - - - - - - - - -
28/01:30am 21.7 ESE 14 16 1020.9 - - - - - - - - -
28/01:26am 21.6 ESE 14 - 1021.1 - - - - - - - - -
28/01:00am 21.5 ESE 12 14 1021.3 - - - - - - - - -
28/12:30am 21.6 ESE 13 15 1021.5 - - - - - - - - -
28/12:26am 21.5 ESE 13 - 1021.6 - - - - - - - - -
28/12:00am 21.8 E 11 13 1021.5 - - - - - - - - -
 
Date/Time
EST
Temp

°C
Wind Pressure Rain
since 9am
mm
Weather Cloud Vis
km
Sea
Height
m
Swell
Dir
 
Speed
knots
Gust
knots
hPa Trend Height
m
Period
s
Dir
27/11:30pm 21.6 E 12 14 1021.9 - - - - - - - - -
27/11:26pm 21.6 E 12 - 1022.1 - - - - - - - - -
27/11:00pm 21.4 ESE 13 15 1022.1 - - - - - - - - -
27/10:30pm 21.4 ESE 14 16 1022.1 - - - - - - - - -
27/10:26pm 21.5 ESE 14 - 1022.2 - - - - - - - - -
27/10:00pm 21.4 ESE 15 18 1022.2 - - - - - - - - -
27/09:30pm 21.3 SE 16 19 1022.1 - - - - - - - - -
27/09:26pm 21.3 ESE 16 - 1022.2 - - - - - - - - -
27/09:00pm 21.3 SE 15 18 1022.0 - - - - - - - - -
27/08:30pm 21.4 SE 16 18 1021.9 - - - - - - - - -
27/08:26pm 21.4 SE 16 - 1022.0 - - - - - - - - -
27/08:00pm 21.5 SE 15 17 1021.8 - - - - - - - - -
27/07:30pm 21.4 SE 15 16 1021.6 - - - - - - - - -
27/07:26pm 21.5 SE 15 - 1021.6 - - - - - - - - -
27/07:00pm 21.4 SSE 16 18 1021.1 - - - - - - - - -
27/06:30pm 21.4 SSE 15 17 1020.7 - - - - - - - - -
27/06:26pm 21.5 SSE 16 - 1020.8 - - - - - - - - -
27/06:00pm 21.3 SSE 14 16 1020.4 - - - - - - - - -
27/05:30pm 21.6 SSE 14 17 1020.2 - - - - - - - - -
27/05:26pm 21.5 S 14 - 1020.3 - - - - - - - - -

Other Formats:

Comma delimited format used in spreadsheet applications
http://www.bom.gov.au/fwo/IDQ60701/IDQ60701.94379.axf

JavaScript Object Notation format (JSON) in row-major order
http://www.bom.gov.au/fwo/IDQ60701/IDQ60701.94379.json